ESMK/KID METAR and TAF weather

Enter ICAO airport designator
Station Type Date Time Source
ESMK METAR 2018/06/25 01:50 UTC NOAA

ESMK 250150Z AUTO 29007KT 9999 NCD 13/12 Q1015


Station Type Date Time Source
ESMK Decoded METAR 2018/06/25 01:50 UTC NOAA

Kristianstad / Everod, Sweden (ESMK) 55-55N 014-05E
Jun 24, 2018 - 09:50 PM EDT / 2018.06.25 0150 UTC
Wind: from the WNW (290 degrees) at 8 MPH (7 KT):0
Visibility: greater than 7 mile(s):0
Temperature: 55 F (13 C)
Dew Point: 53 F (12 C)
Relative Humidity: 93%
Pressure (altimeter): 29.97 in. Hg (1015 hPa)
ob: ESMK 250150Z AUTO 29007KT 9999 NCD 13/12 Q1015
cycle: 2

Station Type Date Time Source
ESMK TAF 2015/03/18 12:33 UTC NOAA

TAF ESMK 181130Z 1812/1824 13012KT CAVOK


Example: see airport list